createdAt,value
2023-03-02T00:00:55.264Z,1.51
2023-03-02T00:03:46.249Z,1.50
2023-03-02T00:06:37.829Z,1.50
2023-03-02T00:09:27.366Z,1.49
2023-03-02T00:11:58.447Z,1.47
2023-03-02T00:14:49.435Z,1.44
2023-03-02T00:17:40.270Z,1.45
2023-03-02T00:20:23.620Z,1.44
2023-03-02T00:23:14.893Z,1.43
2023-03-02T00:26:06.282Z,1.42
2023-03-02T00:28:57.000Z,1.39
2023-03-02T00:31:48.742Z,1.38
2023-03-02T00:34:32.965Z,1.39
2023-03-02T00:37:13.713Z,1.37
2023-03-02T00:40:06.671Z,1.38
2023-03-02T00:42:47.712Z,1.39
2023-03-02T00:45:38.642Z,1.42
2023-03-02T00:48:29.487Z,1.43
2023-03-02T00:51:21.391Z,1.41
2023-03-02T00:54:03.203Z,1.37
2023-03-02T00:56:54.034Z,1.33
2023-03-02T00:59:44.878Z,1.30
2023-03-02T01:02:35.934Z,1.26
2023-03-02T01:05:27.101Z,1.21
2023-03-02T01:08:18.260Z,1.17
2023-03-02T01:11:15.577Z,1.16
2023-03-02T01:14:05.720Z,1.15
2023-03-02T01:16:56.657Z,1.11
2023-03-02T01:19:48.101Z,1.11
2023-03-02T01:22:38.986Z,1.18
2023-03-02T01:25:29.995Z,1.18
2023-03-02T01:28:14.767Z,1.18
2023-03-02T01:31:05.882Z,1.15
2023-03-02T01:33:36.618Z,1.10
2023-03-02T01:36:27.317Z,1.06
2023-03-02T01:39:18.232Z,1.03
2023-03-02T01:42:09.374Z,1.02
2023-03-02T01:44:57.217Z,1.01
2023-03-02T01:47:48.144Z,1.00
2023-03-02T01:50:38.920Z,0.99
2023-03-02T01:53:33.191Z,0.95
2023-03-02T01:56:28.038Z,0.95
2023-03-02T01:59:22.494Z,0.99
2023-03-02T02:02:13.690Z,1.00
2023-03-02T02:05:05.948Z,1.00
2023-03-02T02:07:56.846Z,0.97
2023-03-02T02:10:47.594Z,0.95
2023-03-02T02:13:28.378Z,0.94
2023-03-02T02:16:19.557Z,0.94
2023-03-02T02:19:04.026Z,0.96
2023-03-02T02:21:54.745Z,0.95
2023-03-02T02:24:51.160Z,0.93
2023-03-02T02:27:42.083Z,0.92
2023-03-02T02:30:32.893Z,0.90
2023-03-02T02:33:26.654Z,0.89
2023-03-02T02:36:24.704Z,0.87
2023-03-02T02:39:16.240Z,0.90
2023-03-02T02:42:14.104Z,0.92
2023-03-02T02:45:08.386Z,0.90
2023-03-02T02:47:59.767Z,0.85
2023-03-02T02:50:38.146Z,0.79
2023-03-02T02:53:36.251Z,0.72
2023-03-02T02:56:28.527Z,0.66
2023-03-02T02:59:23.135Z,0.61
2023-03-02T03:02:21.203Z,0.56
2023-03-02T03:05:16.648Z,0.50
2023-03-02T03:08:12.090Z,0.40
2023-03-02T03:11:03.871Z,0.29
2023-03-02T03:13:58.361Z,0.21
2023-03-02T03:16:49.383Z,0.20
2023-03-02T03:19:41.746Z,0.18
2023-03-02T03:22:33.600Z,0.13
2023-03-02T03:25:07.937Z,0.09
2023-03-02T03:27:58.750Z,0.06
2023-03-02T03:30:49.703Z,0.01
2023-03-02T03:33:40.684Z,-0.02
2023-03-02T03:36:33.765Z,-0.07
2023-03-02T03:39:24.752Z,-0.14
2023-03-02T03:42:15.641Z,-0.17
2023-03-02T03:44:56.860Z,-0.17
2023-03-02T03:47:47.631Z,-0.21
2023-03-02T03:50:27.453Z,-0.24
2023-03-02T03:53:18.237Z,-0.28
2023-03-02T03:56:09.707Z,-0.30
2023-03-02T03:59:06.418Z,-0.26
2023-03-02T04:01:59.911Z,-0.24
2023-03-02T04:04:50.780Z,-0.16
2023-03-02T04:07:43.210Z,-0.13
2023-03-02T04:10:34.026Z,-0.15
2023-03-02T04:13:24.818Z,-0.17
2023-03-02T04:16:09.780Z,-0.17
2023-03-02T04:19:00.621Z,-0.18
2023-03-02T04:21:53.667Z,-0.21
2023-03-02T04:24:44.617Z,-0.25
2023-03-02T04:27:35.339Z,-0.26
2023-03-02T04:30:28.208Z,-0.28
2023-03-02T04:33:19.024Z,-0.33
2023-03-02T04:36:10.703Z,-0.38
2023-03-02T04:39:00.350Z,-0.45
2023-03-02T04:41:52.159Z,-0.51
2023-03-02T04:44:42.900Z,-0.58
2023-03-02T04:47:23.785Z,-0.64
2023-03-02T04:50:16.647Z,-0.70
2023-03-02T04:53:07.967Z,-0.76
2023-03-02T04:55:57.718Z,-0.82
2023-03-02T04:58:48.553Z,-0.88
2023-03-02T05:01:39.333Z,-0.92
2023-03-02T05:04:33.880Z,-0.96
2023-03-02T05:07:24.811Z,-1.03
2023-03-02T05:10:18.237Z,-1.09
2023-03-02T05:13:08.928Z,-1.14
2023-03-02T05:15:59.715Z,-1.17
2023-03-02T05:18:50.980Z,-1.18
2023-03-02T05:21:41.860Z,-1.18
2023-03-02T05:24:32.732Z,-1.16
2023-03-02T05:27:23.544Z,-1.15
2023-03-02T05:30:16.238Z,-1.16
2023-03-02T05:33:07.198Z,-1.18
2023-03-02T05:35:58.288Z,-1.22
2023-03-02T05:38:49.141Z,-1.24
2023-03-02T05:41:31.365Z,-1.25
2023-03-02T05:44:22.281Z,-1.25
2023-03-02T05:47:13.097Z,-1.24
2023-03-02T05:50:03.894Z,-1.20
2023-03-02T05:52:54.728Z,-1.20
2023-03-02T05:55:45.652Z,-1.20
2023-03-02T05:58:18.832Z,-1.20
2023-03-02T06:01:15.289Z,-1.16
2023-03-02T06:04:06.602Z,-1.07
2023-03-02T06:06:50.354Z,-0.95
2023-03-02T06:09:42.225Z,-0.80
2023-03-02T06:12:33.352Z,-0.73
2023-03-02T06:15:24.090Z,-0.64
2023-03-02T06:18:15.057Z,-0.57
2023-03-02T06:21:06.626Z,-0.48
2023-03-02T06:23:56.418Z,-0.38
2023-03-02T06:26:47.592Z,-0.34
2023-03-02T06:29:38.713Z,-0.32
2023-03-02T06:32:34.463Z,-0.26
2023-03-02T06:35:25.563Z,-0.20
2023-03-02T06:38:06.914Z,-0.17
2023-03-02T06:40:58.016Z,-0.15
2023-03-02T06:43:48.547Z,-0.13
2023-03-02T06:46:40.615Z,-0.13
2023-03-02T06:49:31.604Z,-0.09
2023-03-02T06:52:13.726Z,-0.04
2023-03-02T06:55:04.903Z,0.01
2023-03-02T06:57:55.866Z,0.07
2023-03-02T07:00:47.269Z,0.13
2023-03-02T07:03:27.492Z,0.20
2023-03-02T07:06:18.431Z,0.27
2023-03-02T07:08:52.597Z,0.32
2023-03-02T07:11:35.856Z,0.36
2023-03-02T07:14:27.516Z,0.38
2023-03-02T07:17:00.987Z,0.41
2023-03-02T07:19:51.842Z,0.43
2023-03-02T07:22:22.655Z,0.44
2023-03-02T07:24:55.567Z,0.45
2023-03-02T07:27:31.142Z,0.50
2023-03-02T07:30:14.920Z,0.57
2023-03-02T07:33:04.819Z,0.63
2023-03-02T07:35:38.423Z,0.70
2023-03-02T07:38:29.732Z,0.79
2023-03-02T07:41:20.549Z,0.86
2023-03-02T07:43:54.361Z,0.93
2023-03-02T07:46:25.257Z,1.01
2023-03-02T07:49:07.229Z,1.15
2023-03-02T07:51:42.408Z,1.26
2023-03-02T07:54:16.046Z,1.35
2023-03-02T07:56:50.270Z,1.42
2023-03-02T07:59:21.041Z,1.49
2023-03-02T08:02:02.930Z,1.60
2023-03-02T08:04:54.352Z,1.69
2023-03-02T08:07:25.163Z,1.77
2023-03-02T08:10:05.244Z,1.88
2023-03-02T08:12:47.375Z,1.98
2023-03-02T08:15:21.542Z,2.06
2023-03-02T08:18:02.582Z,2.17
2023-03-02T08:20:53.919Z,2.28
2023-03-02T08:23:38.813Z,2.38
2023-03-02T08:26:29.861Z,2.48
2023-03-02T08:29:09.968Z,2.61
2023-03-02T08:32:01.268Z,2.75
2023-03-02T08:34:52.365Z,2.87
2023-03-02T08:37:23.223Z,2.97
2023-03-02T08:39:58.656Z,3.07
2023-03-02T08:42:29.754Z,3.17
2023-03-02T08:45:13.341Z,3.28
2023-03-02T08:47:55.758Z,3.38
2023-03-02T08:50:46.704Z,3.49
2023-03-02T08:53:40.509Z,3.62
2023-03-02T08:56:34.079Z,3.82
2023-03-02T08:59:25.349Z,4.21
2023-03-02T09:02:16.550Z,4.45
2023-03-02T09:05:08.496Z,4.67
2023-03-02T09:07:42.018Z,4.78
2023-03-02T09:10:33.410Z,4.85
2023-03-02T09:13:24.473Z,4.94
2023-03-02T09:16:16.241Z,5.07
2023-03-02T09:19:01.402Z,5.26
2023-03-02T09:21:35.992Z,5.43
2023-03-02T09:24:27.202Z,5.60
2023-03-02T09:26:58.141Z,5.70
2023-03-02T09:29:31.604Z,5.78
2023-03-02T09:32:04.955Z,5.86
2023-03-02T09:34:50.032Z,5.99
2023-03-02T09:37:32.514Z,6.09
2023-03-02T09:40:27.975Z,6.20
2023-03-02T09:43:19.090Z,6.27
2023-03-02T09:46:12.533Z,6.35
2023-03-02T09:48:53.994Z,6.39
2023-03-02T09:51:41.479Z,6.48
2023-03-02T09:54:25.822Z,6.56
2023-03-02T09:57:25.498Z,6.66
2023-03-02T10:00:18.109Z,6.73
2023-03-02T10:03:17.917Z,6.82
2023-03-02T10:05:52.071Z,6.90
2023-03-02T10:08:40.972Z,6.97
2023-03-02T10:11:18.831Z,7.04
2023-03-02T10:13:57.074Z,7.07
2023-03-02T10:16:48.534Z,7.12
2023-03-02T10:19:38.037Z,7.21
2023-03-02T10:22:28.539Z,7.29
2023-03-02T10:25:06.797Z,7.38
2023-03-02T10:27:57.887Z,7.50
2023-03-02T10:30:51.150Z,7.60
2023-03-02T10:33:44.319Z,7.71
2023-03-02T10:36:27.552Z,7.76
2023-03-02T10:39:00.639Z,7.86
2023-03-02T10:41:57.731Z,7.95
2023-03-02T10:44:41.408Z,7.97
2023-03-02T10:47:34.780Z,8.04
2023-03-02T10:50:05.746Z,8.10
2023-03-02T10:53:00.128Z,8.12
2023-03-02T10:55:53.749Z,8.19
2023-03-02T10:58:32.122Z,8.28
2023-03-02T11:01:10.014Z,8.34
2023-03-02T11:03:43.936Z,8.38
2023-03-02T11:06:22.797Z,8.42
2023-03-02T11:09:04.771Z,8.48
2023-03-02T11:11:38.936Z,8.58
2023-03-02T11:14:29.849Z,8.71
2023-03-02T11:17:33.758Z,8.80
2023-03-02T11:20:16.096Z,8.83
2023-03-02T11:22:58.360Z,8.87
2023-03-02T11:25:36.996Z,8.93
2023-03-02T11:28:16.642Z,9.00
2023-03-02T11:30:54.633Z,9.10
2023-03-02T11:33:30.895Z,9.18
2023-03-02T11:36:06.711Z,9.26
2023-03-02T11:38:48.375Z,9.30
2023-03-02T11:41:31.000Z,9.38
2023-03-02T11:44:24.860Z,9.55
2023-03-02T11:47:02.620Z,9.69
2023-03-02T11:49:43.435Z,9.80
2023-03-02T11:52:27.386Z,9.92
2023-03-02T11:55:04.649Z,10.02
2023-03-02T11:57:39.826Z,10.08
2023-03-02T12:00:28.472Z,10.14
2023-03-02T12:03:05.231Z,10.22
2023-03-02T12:05:48.660Z,10.31
2023-03-02T12:08:41.281Z,10.51
2023-03-02T12:11:35.298Z,10.86
2023-03-02T12:14:26.049Z,11.26
2023-03-02T12:17:07.548Z,11.60
2023-03-02T12:19:45.204Z,11.86
2023-03-02T12:22:26.580Z,12.20
2023-03-02T12:25:07.078Z,12.54
2023-03-02T12:27:40.240Z,12.81
2023-03-02T12:30:27.235Z,13.08
2023-03-02T12:33:22.233Z,13.25
2023-03-02T12:36:06.640Z,13.42
2023-03-02T12:38:40.481Z,13.59
2023-03-02T12:41:31.002Z,13.67
2023-03-02T12:44:23.407Z,13.89
2023-03-02T12:46:54.689Z,14.09
2023-03-02T12:49:43.182Z,14.16
2023-03-02T12:52:28.282Z,14.33
2023-03-02T12:55:16.533Z,14.52
2023-03-02T12:57:53.242Z,14.64
2023-03-02T13:00:26.905Z,14.78
2023-03-02T13:03:02.294Z,14.72
2023-03-02T13:05:35.689Z,14.64
2023-03-02T13:08:09.818Z,14.67
2023-03-02T13:10:43.939Z,14.82
2023-03-02T13:13:21.451Z,14.96
2023-03-02T13:15:55.184Z,15.34
2023-03-02T13:18:32.103Z,15.58
2023-03-02T13:21:04.928Z,15.66
2023-03-02T13:23:36.631Z,15.77
2023-03-02T13:26:08.333Z,15.68
2023-03-02T13:28:40.916Z,15.59
2023-03-02T13:31:25.957Z,15.66
2023-03-02T13:33:59.017Z,15.73
2023-03-02T13:36:35.449Z,15.81
2023-03-02T13:39:09.203Z,15.95
2023-03-02T13:41:40.731Z,16.10
2023-03-02T13:44:24.532Z,16.24
2023-03-02T13:46:55.726Z,16.29
2023-03-02T13:49:32.544Z,16.21
2023-03-02T13:52:08.378Z,16.36
2023-03-02T13:54:43.140Z,16.52
2023-03-02T13:57:19.986Z,16.70
2023-03-02T13:59:51.048Z,16.67
2023-03-02T14:02:26.326Z,16.65
2023-03-02T14:04:58.080Z,16.69
2023-03-02T14:07:28.932Z,16.79
2023-03-02T14:09:59.666Z,16.75
2023-03-02T14:12:31.539Z,16.93
2023-03-02T14:15:04.575Z,17.16
2023-03-02T14:17:36.238Z,17.27
2023-03-02T14:20:08.049Z,17.20
2023-03-02T14:22:39.065Z,17.23
2023-03-02T14:25:11.549Z,17.20
2023-03-02T14:27:43.835Z,17.09
2023-03-02T14:30:18.692Z,17.15
2023-03-02T14:32:51.225Z,17.18
2023-03-02T14:35:22.363Z,17.30
2023-03-02T14:37:51.717Z,17.39
2023-03-02T14:40:26.696Z,17.45
2023-03-02T14:42:57.608Z,17.47
2023-03-02T14:45:30.484Z,17.49
2023-03-02T14:48:01.545Z,17.55
2023-03-02T14:50:33.053Z,17.46
2023-03-02T14:53:03.858Z,17.42
2023-03-02T14:55:36.460Z,17.40
2023-03-02T14:58:13.403Z,17.41
2023-03-02T15:00:45.148Z,17.29
2023-03-02T15:03:22.841Z,16.95
2023-03-02T15:06:01.132Z,16.55
2023-03-02T15:08:32.912Z,16.36
2023-03-02T15:11:02.117Z,16.30
2023-03-02T15:13:32.904Z,16.25
2023-03-02T15:16:04.096Z,16.24
2023-03-02T15:18:33.288Z,16.26
2023-03-02T15:21:04.137Z,16.28
2023-03-02T15:23:34.862Z,16.28
2023-03-02T15:26:06.905Z,16.28
2023-03-02T15:28:37.885Z,16.26
2023-03-02T15:31:16.206Z,16.26
2023-03-02T15:33:47.704Z,16.23
2023-03-02T15:36:18.494Z,16.28
2023-03-02T15:38:51.665Z,16.30
2023-03-02T15:41:22.531Z,16.30
2023-03-02T15:43:54.223Z,16.18
2023-03-02T15:46:25.378Z,16.05
2023-03-02T15:48:54.491Z,16.08
2023-03-02T15:51:25.364Z,16.05
2023-03-02T15:53:56.345Z,15.91
2023-03-02T15:56:32.850Z,15.86
2023-03-02T15:59:09.607Z,15.91
2023-03-02T16:01:40.325Z,15.96
2023-03-02T16:04:11.128Z,15.92
2023-03-02T16:06:42.202Z,15.78
2023-03-02T16:09:13.049Z,15.76
2023-03-02T16:11:43.798Z,15.54
2023-03-02T16:14:15.725Z,15.12
2023-03-02T16:16:47.079Z,14.63
2023-03-02T16:19:20.169Z,14.18
2023-03-02T16:21:55.561Z,13.79
2023-03-02T16:24:26.643Z,13.46
2023-03-02T16:27:09.141Z,13.16
2023-03-02T16:29:43.478Z,12.90
2023-03-02T16:32:24.431Z,12.63
2023-03-02T16:35:15.563Z,12.33
2023-03-02T16:37:56.822Z,12.06
2023-03-02T16:40:49.491Z,11.77
2023-03-02T16:43:29.728Z,11.52
2023-03-02T16:46:13.618Z,11.28
2023-03-02T16:49:05.596Z,11.05
2023-03-02T16:51:45.595Z,10.82
2023-03-02T16:54:16.929Z,10.56
2023-03-02T16:57:09.707Z,10.27
2023-03-02T16:59:52.186Z,9.98
2023-03-02T17:02:43.326Z,9.66
2023-03-02T17:05:24.667Z,9.40
2023-03-02T17:08:16.731Z,9.14
2023-03-02T17:11:08.201Z,8.89
2023-03-02T17:13:50.241Z,8.68
2023-03-02T17:16:42.445Z,8.44
2023-03-02T17:19:26.776Z,8.25
2023-03-02T17:22:06.661Z,8.07
2023-03-02T17:24:42.780Z,7.90
2023-03-02T17:27:25.319Z,7.73
2023-03-02T17:30:00.245Z,7.55
2023-03-02T17:32:31.343Z,7.47
2023-03-02T17:35:22.711Z,7.39
2023-03-02T17:37:55.781Z,7.29
2023-03-02T17:40:46.965Z,7.16
2023-03-02T17:43:39.845Z,7.09
2023-03-02T17:46:32.612Z,6.98
2023-03-02T17:49:03.412Z,6.88
2023-03-02T17:51:47.105Z,6.75
2023-03-02T17:54:17.790Z,6.65
2023-03-02T17:57:09.098Z,6.56
2023-03-02T17:59:39.957Z,6.49
2023-03-02T18:02:21.440Z,6.44
2023-03-02T18:05:13.879Z,6.40
2023-03-02T18:08:04.953Z,6.35
2023-03-02T18:10:35.880Z,6.30
2023-03-02T18:13:19.918Z,6.25
2023-03-02T18:15:55.569Z,6.23
2023-03-02T18:18:46.591Z,6.20
2023-03-02T18:21:39.823Z,6.18
2023-03-02T18:24:11.725Z,6.18
2023-03-02T18:27:02.758Z,6.14
2023-03-02T18:29:53.976Z,6.08
2023-03-02T18:32:44.988Z,6.02
2023-03-02T18:35:36.192Z,5.94
2023-03-02T18:38:31.068Z,5.90
2023-03-02T18:41:23.165Z,5.86
2023-03-02T18:44:14.159Z,5.82
2023-03-02T18:47:07.634Z,5.78
2023-03-02T18:50:00.422Z,5.75
2023-03-02T18:52:34.085Z,5.78
2023-03-02T18:55:26.614Z,5.79
2023-03-02T18:58:20.763Z,5.78
2023-03-02T19:01:12.570Z,5.76
2023-03-02T19:04:05.110Z,5.73
2023-03-02T19:06:46.062Z,5.74
2023-03-02T19:09:37.724Z,5.75
2023-03-02T19:12:19.985Z,5.74
2023-03-02T19:15:13.449Z,5.73
2023-03-02T19:18:05.987Z,5.70
2023-03-02T19:20:57.743Z,5.61
2023-03-02T19:23:48.840Z,5.48
2023-03-02T19:26:39.890Z,5.33
2023-03-02T19:29:30.907Z,5.18
2023-03-02T19:32:22.368Z,5.04
2023-03-02T19:35:04.598Z,4.92
2023-03-02T19:37:55.768Z,4.81
2023-03-02T19:40:45.854Z,4.74
2023-03-02T19:43:20.429Z,4.68
2023-03-02T19:46:12.315Z,4.66
2023-03-02T19:49:03.242Z,4.68
2023-03-02T19:51:45.409Z,4.69
2023-03-02T19:54:36.454Z,4.71
2023-03-02T19:57:27.549Z,4.78
2023-03-02T20:00:20.275Z,4.86
2023-03-02T20:03:11.312Z,4.90
2023-03-02T20:05:52.325Z,4.93
2023-03-02T20:08:43.415Z,4.95
2023-03-02T20:11:17.822Z,4.95
2023-03-02T20:13:50.851Z,4.93
2023-03-02T20:16:41.852Z,4.89
2023-03-02T20:19:32.939Z,4.87
2023-03-02T20:22:24.316Z,4.83
2023-03-02T20:25:15.945Z,4.82
2023-03-02T20:28:06.094Z,4.74
2023-03-02T20:30:51.151Z,4.62
2023-03-02T20:33:24.119Z,4.49
2023-03-02T20:35:55.531Z,4.37
2023-03-02T20:38:32.429Z,4.25
2023-03-02T20:41:07.435Z,4.12
2023-03-02T20:43:48.904Z,3.97
2023-03-02T20:46:24.739Z,3.83
2023-03-02T20:49:05.515Z,3.70
2023-03-02T20:51:53.590Z,3.58
2023-03-02T20:54:33.453Z,3.47
2023-03-02T20:57:18.257Z,3.39
2023-03-02T21:00:12.596Z,3.33
2023-03-02T21:03:04.099Z,3.24
2023-03-02T21:05:49.525Z,3.11
2023-03-02T21:08:34.104Z,2.99
2023-03-02T21:11:26.153Z,2.88
2023-03-02T21:14:17.359Z,2.78
2023-03-02T21:16:58.741Z,2.69
2023-03-02T21:19:49.938Z,2.57
2023-03-02T21:22:41.026Z,2.46
2023-03-02T21:25:32.185Z,2.36
2023-03-02T21:28:23.286Z,2.30
2023-03-02T21:31:18.426Z,2.22
2023-03-02T21:34:09.796Z,2.15
2023-03-02T21:37:00.867Z,2.09
2023-03-02T21:39:52.419Z,2.02
2023-03-02T21:42:43.610Z,1.94
2023-03-02T21:45:22.942Z,1.87
2023-03-02T21:48:15.884Z,1.82
2023-03-02T21:50:58.037Z,1.75
2023-03-02T21:53:29.321Z,1.69
2023-03-02T21:55:58.618Z,1.63
2023-03-02T21:58:50.469Z,1.58
2023-03-02T22:01:41.719Z,1.54
2023-03-02T22:04:35.274Z,1.50
2023-03-02T22:07:26.607Z,1.47
2023-03-02T22:10:28.000Z,1.43
2023-03-02T22:13:23.511Z,1.38
2023-03-02T22:16:20.135Z,1.33
2023-03-02T22:19:25.642Z,1.29
2023-03-02T22:22:23.188Z,1.23
2023-03-02T22:25:19.576Z,1.17
2023-03-02T22:28:17.945Z,1.11
2023-03-02T22:31:18.482Z,1.05
2023-03-02T22:34:14.470Z,1.01
2023-03-02T22:37:11.814Z,0.97
2023-03-02T22:40:09.395Z,0.95
2023-03-02T22:43:15.091Z,0.95
2023-03-02T22:46:15.851Z,0.96
2023-03-02T22:49:17.786Z,0.95
2023-03-02T22:52:17.434Z,0.92
2023-03-02T22:55:37.515Z,0.90
2023-03-02T22:58:42.771Z,0.88
2023-03-02T23:01:42.274Z,0.86
2023-03-02T23:04:27.186Z,0.85
2023-03-02T23:07:20.363Z,0.83
2023-03-02T23:10:22.676Z,0.79
2023-03-02T23:13:15.445Z,0.73
2023-03-02T23:16:17.392Z,0.68
2023-03-02T23:19:08.489Z,0.66
2023-03-02T23:22:02.942Z,0.62
2023-03-02T23:24:53.781Z,0.58
2023-03-02T23:27:35.276Z,0.55
2023-03-02T23:30:24.799Z,0.53
2023-03-02T23:33:15.681Z,0.51
2023-03-02T23:36:07.402Z,0.47
2023-03-02T23:38:58.498Z,0.42
2023-03-02T23:41:49.655Z,0.36
2023-03-02T23:44:40.654Z,0.30
2023-03-02T23:47:15.917Z,0.25
2023-03-02T23:50:08.865Z,0.20
2023-03-02T23:52:59.803Z,0.13
2023-03-02T23:55:50.423Z,0.07
2023-03-02T23:58:41.674Z,-0.01
